sensor_id;sensor_type;location;lat;lon;timestamp;P1;durP1;ratioP1;P2;durP2;ratioP2
7833;SDS011;3962;42.696;23.354;2023-03-01T00:01:26;8.00;;;4.90;;
7833;SDS011;3962;42.696;23.354;2023-03-01T00:03:55;5.77;;;4.07;;
7833;SDS011;3962;42.696;23.354;2023-03-01T00:06:23;4.70;;;3.60;;
7833;SDS011;3962;42.696;23.354;2023-03-01T00:08:50;6.03;;;4.33;;
7833;SDS011;3962;42.696;23.354;2023-03-01T00:11:18;8.37;;;5.23;;
7833;SDS011;3962;42.696;23.354;2023-03-01T00:13:47;6.17;;;4.63;;
7833;SDS011;3962;42.696;23.354;2023-03-01T00:16:16;6.03;;;3.57;;
7833;SDS011;3962;42.696;23.354;2023-03-01T00:18:45;3.67;;;3.30;;
7833;SDS011;3962;42.696;23.354;2023-03-01T00:21:13;4.10;;;3.37;;
7833;SDS011;3962;42.696;23.354;2023-03-01T00:23:40;3.73;;;3.30;;
7833;SDS011;3962;42.696;23.354;2023-03-01T00:26:08;6.27;;;3.53;;
7833;SDS011;3962;42.696;23.354;2023-03-01T00:28:37;3.97;;;3.30;;
7833;SDS011;3962;42.696;23.354;2023-03-01T00:31:04;3.53;;;2.73;;
7833;SDS011;3962;42.696;23.354;2023-03-01T00:33:31;4.73;;;3.40;;
7833;SDS011;3962;42.696;23.354;2023-03-01T00:35:58;4.47;;;3.50;;
7833;SDS011;3962;42.696;23.354;2023-03-01T00:38:26;4.40;;;3.30;;
7833;SDS011;3962;42.696;23.354;2023-03-01T00:40:53;4.77;;;3.93;;
7833;SDS011;3962;42.696;23.354;2023-03-01T00:43:20;5.00;;;3.40;;
7833;SDS011;3962;42.696;23.354;2023-03-01T00:45:47;4.27;;;3.47;;
7833;SDS011;3962;42.696;23.354;2023-03-01T00:48:14;4.03;;;3.13;;
7833;SDS011;3962;42.696;23.354;2023-03-01T00:50:41;3.73;;;3.40;;
7833;SDS011;3962;42.696;23.354;2023-03-01T00:53:07;6.10;;;4.10;;
7833;SDS011;3962;42.696;23.354;2023-03-01T00:55:36;4.40;;;3.90;;
7833;SDS011;3962;42.696;23.354;2023-03-01T00:58:02;4.47;;;3.70;;
7833;SDS011;3962;42.696;23.354;2023-03-01T01:00:29;4.33;;;3.00;;
7833;SDS011;3962;42.696;23.354;2023-03-01T01:02:56;3.47;;;3.13;;
7833;SDS011;3962;42.696;23.354;2023-03-01T01:05:23;5.77;;;3.47;;
7833;SDS011;3962;42.696;23.354;2023-03-01T01:07:50;4.00;;;3.60;;
7833;SDS011;3962;42.696;23.354;2023-03-01T01:10:17;5.03;;;3.27;;
7833;SDS011;3962;42.696;23.354;2023-03-01T01:12:45;3.77;;;3.37;;
7833;SDS011;3962;42.696;23.354;2023-03-01T01:15:13;4.17;;;3.33;;
7833;SDS011;3962;42.696;23.354;2023-03-01T01:17:41;3.87;;;3.43;;
7833;SDS011;3962;42.696;23.354;2023-03-01T01:20:08;3.40;;;3.10;;
7833;SDS011;3962;42.696;23.354;2023-03-01T01:22:36;4.77;;;3.87;;
7833;SDS011;3962;42.696;23.354;2023-03-01T01:25:03;4.83;;;3.53;;
7833;SDS011;3962;42.696;23.354;2023-03-01T01:27:30;4.07;;;3.57;;
7833;SDS011;3962;42.696;23.354;2023-03-01T01:29:58;5.03;;;3.70;;
7833;SDS011;3962;42.696;23.354;2023-03-01T01:32:25;3.90;;;3.33;;
7833;SDS011;3962;42.696;23.354;2023-03-01T01:34:52;4.60;;;3.37;;
7833;SDS011;3962;42.696;23.354;2023-03-01T01:37:19;3.40;;;3.10;;
7833;SDS011;3962;42.696;23.354;2023-03-01T01:39:46;4.20;;;3.80;;
7833;SDS011;3962;42.696;23.354;2023-03-01T01:42:14;4.77;;;4.10;;
7833;SDS011;3962;42.696;23.354;2023-03-01T01:44:42;3.93;;;3.47;;
7833;SDS011;3962;42.696;23.354;2023-03-01T01:47:14;6.37;;;4.03;;
7833;SDS011;3962;42.696;23.354;2023-03-01T01:49:45;4.17;;;3.77;;
7833;SDS011;3962;42.696;23.354;2023-03-01T01:52:16;4.07;;;3.50;;
7833;SDS011;3962;42.696;23.354;2023-03-01T01:54:47;5.13;;;3.40;;
7833;SDS011;3962;42.696;23.354;2023-03-01T01:57:19;3.77;;;3.27;;
7833;SDS011;3962;42.696;23.354;2023-03-01T01:59:51;3.30;;;3.00;;
7833;SDS011;3962;42.696;23.354;2023-03-01T02:02:21;3.30;;;3.10;;
7833;SDS011;3962;42.696;23.354;2023-03-01T02:04:49;3.10;;;2.80;;
7833;SDS011;3962;42.696;23.354;2023-03-01T02:07:22;3.87;;;3.27;;
7833;SDS011;3962;42.696;23.354;2023-03-01T02:09:51;3.30;;;3.00;;
7833;SDS011;3962;42.696;23.354;2023-03-01T02:12:19;3.20;;;2.90;;
7833;SDS011;3962;42.696;23.354;2023-03-01T02:14:48;3.00;;;2.80;;
7833;SDS011;3962;42.696;23.354;2023-03-01T02:17:16;2.83;;;2.60;;
7833;SDS011;3962;42.696;23.354;2023-03-01T02:19:49;2.77;;;2.57;;
7833;SDS011;3962;42.696;23.354;2023-03-01T02:22:27;2.93;;;2.70;;
7833;SDS011;3962;42.696;23.354;2023-03-01T02:25:00;3.17;;;2.87;;
7833;SDS011;3962;42.696;23.354;2023-03-01T02:27:38;3.63;;;3.10;;
7833;SDS011;3962;42.696;23.354;2023-03-01T02:30:12;2.70;;;2.50;;
7833;SDS011;3962;42.696;23.354;2023-03-01T02:32:40;3.77;;;3.03;;
7833;SDS011;3962;42.696;23.354;2023-03-01T02:35:08;3.43;;;3.10;;
7833;SDS011;3962;42.696;23.354;2023-03-01T02:37:37;4.23;;;3.60;;
7833;SDS011;3962;42.696;23.354;2023-03-01T02:40:06;3.30;;;3.00;;
7833;SDS011;3962;42.696;23.354;2023-03-01T02:42:40;4.00;;;3.43;;
7833;SDS011;3962;42.696;23.354;2023-03-01T02:45:13;3.43;;;2.80;;
7833;SDS011;3962;42.696;23.354;2023-03-01T02:47:40;2.73;;;2.47;;
7833;SDS011;3962;42.696;23.354;2023-03-01T02:50:11;3.40;;;3.10;;
7833;SDS011;3962;42.696;23.354;2023-03-01T02:52:49;3.70;;;3.10;;
7833;SDS011;3962;42.696;23.354;2023-03-01T02:55:24;4.07;;;2.90;;
7833;SDS011;3962;42.696;23.354;2023-03-01T02:57:52;3.00;;;2.80;;
7833;SDS011;3962;42.696;23.354;2023-03-01T03:00:23;3.83;;;3.10;;
7833;SDS011;3962;42.696;23.354;2023-03-01T03:02:53;3.40;;;2.93;;
7833;SDS011;3962;42.696;23.354;2023-03-01T03:05:23;3.77;;;3.20;;
7833;SDS011;3962;42.696;23.354;2023-03-01T03:07:51;3.20;;;2.90;;
7833;SDS011;3962;42.696;23.354;2023-03-01T03:10:19;5.10;;;2.90;;
7833;SDS011;3962;42.696;23.354;2023-03-01T03:12:51;4.17;;;3.40;;
7833;SDS011;3962;42.696;23.354;2023-03-01T03:15:19;3.07;;;2.77;;
7833;SDS011;3962;42.696;23.354;2023-03-01T03:17:49;3.93;;;3.37;;
7833;SDS011;3962;42.696;23.354;2023-03-01T03:20:17;4.33;;;3.00;;
7833;SDS011;3962;42.696;23.354;2023-03-01T03:22:46;5.27;;;3.67;;
7833;SDS011;3962;42.696;23.354;2023-03-01T03:25:14;4.33;;;3.30;;
7833;SDS011;3962;42.696;23.354;2023-03-01T03:27:43;5.37;;;3.27;;
7833;SDS011;3962;42.696;23.354;2023-03-01T03:30:12;4.00;;;3.57;;
7833;SDS011;3962;42.696;23.354;2023-03-01T03:32:43;3.73;;;3.20;;
7833;SDS011;3962;42.696;23.354;2023-03-01T03:35:19;3.50;;;3.20;;
7833;SDS011;3962;42.696;23.354;2023-03-01T03:37:47;4.87;;;2.90;;
7833;SDS011;3962;42.696;23.354;2023-03-01T03:40:29;3.97;;;3.43;;
7833;SDS011;3962;42.696;23.354;2023-03-01T03:42:57;3.40;;;3.10;;
7833;SDS011;3962;42.696;23.354;2023-03-01T03:45:24;5.27;;;3.67;;
7833;SDS011;3962;42.696;23.354;2023-03-01T03:47:51;4.47;;;3.70;;
7833;SDS011;3962;42.696;23.354;2023-03-01T03:50:20;6.63;;;4.10;;
7833;SDS011;3962;42.696;23.354;2023-03-01T03:52:46;3.63;;;3.30;;
7833;SDS011;3962;42.696;23.354;2023-03-01T03:55:13;4.17;;;3.37;;
7833;SDS011;3962;42.696;23.354;2023-03-01T03:57:45;6.30;;;4.80;;
7833;SDS011;3962;42.696;23.354;2023-03-01T04:00:17;8.07;;;4.43;;
7833;SDS011;3962;42.696;23.354;2023-03-01T04:02:45;7.47;;;4.50;;
7833;SDS011;3962;42.696;23.354;2023-03-01T04:05:13;4.27;;;3.63;;
7833;SDS011;3962;42.696;23.354;2023-03-01T04:07:42;4.57;;;3.93;;
7833;SDS011;3962;42.696;23.354;2023-03-01T04:10:10;5.23;;;4.00;;
7833;SDS011;3962;42.696;23.354;2023-03-01T04:12:38;8.23;;;4.17;;
7833;SDS011;3962;42.696;23.354;2023-03-01T04:15:06;5.07;;;4.27;;
7833;SDS011;3962;42.696;23.354;2023-03-01T04:17:38;3.97;;;3.43;;
7833;SDS011;3962;42.696;23.354;2023-03-01T04:20:07;3.60;;;3.30;;
7833;SDS011;3962;42.696;23.354;2023-03-01T04:22:36;5.43;;;3.13;;
7833;SDS011;3962;42.696;23.354;2023-03-01T04:25:05;4.40;;;3.80;;
7833;SDS011;3962;42.696;23.354;2023-03-01T04:27:33;4.80;;;3.93;;
7833;SDS011;3962;42.696;23.354;2023-03-01T04:30:00;8.17;;;3.70;;
7833;SDS011;3962;42.696;23.354;2023-03-01T04:32:27;8.77;;;3.83;;
7833;SDS011;3962;42.696;23.354;2023-03-01T04:34:53;5.20;;;3.23;;
7833;SDS011;3962;42.696;23.354;2023-03-01T04:37:20;4.60;;;3.70;;
7833;SDS011;3962;42.696;23.354;2023-03-01T04:39:49;3.57;;;3.27;;
7833;SDS011;3962;42.696;23.354;2023-03-01T04:42:17;7.03;;;3.50;;
7833;SDS011;3962;42.696;23.354;2023-03-01T04:44:44;9.80;;;4.43;;
7833;SDS011;3962;42.696;23.354;2023-03-01T04:47:12;3.43;;;2.70;;
7833;SDS011;3962;42.696;23.354;2023-03-01T04:49:39;7.53;;;3.90;;
7833;SDS011;3962;42.696;23.354;2023-03-01T04:52:06;4.97;;;3.77;;
7833;SDS011;3962;42.696;23.354;2023-03-01T04:54:33;5.03;;;3.93;;
7833;SDS011;3962;42.696;23.354;2023-03-01T04:57:01;5.83;;;4.60;;
7833;SDS011;3962;42.696;23.354;2023-03-01T04:59:30;6.43;;;5.03;;
7833;SDS011;3962;42.696;23.354;2023-03-01T05:01:56;5.90;;;4.80;;
7833;SDS011;3962;42.696;23.354;2023-03-01T05:04:25;8.80;;;5.43;;
7833;SDS011;3962;42.696;23.354;2023-03-01T05:06:52;9.07;;;4.80;;
7833;SDS011;3962;42.696;23.354;2023-03-01T05:09:19;4.83;;;4.13;;
7833;SDS011;3962;42.696;23.354;2023-03-01T05:11:47;8.07;;;5.53;;
7833;SDS011;3962;42.696;23.354;2023-03-01T05:14:13;5.57;;;4.23;;
7833;SDS011;3962;42.696;23.354;2023-03-01T05:16:42;6.60;;;5.13;;
7833;SDS011;3962;42.696;23.354;2023-03-01T05:19:08;9.57;;;5.63;;
7833;SDS011;3962;42.696;23.354;2023-03-01T05:21:40;6.43;;;5.03;;
7833;SDS011;3962;42.696;23.354;2023-03-01T05:24:21;5.53;;;4.10;;
7833;SDS011;3962;42.696;23.354;2023-03-01T05:26:48;6.70;;;4.53;;
7833;SDS011;3962;42.696;23.354;2023-03-01T05:29:17;6.30;;;5.00;;
7833;SDS011;3962;42.696;23.354;2023-03-01T05:31:52;6.77;;;4.97;;
7833;SDS011;3962;42.696;23.354;2023-03-01T05:34:22;9.97;;;5.67;;
7833;SDS011;3962;42.696;23.354;2023-03-01T05:36:50;8.57;;;5.93;;
7833;SDS011;3962;42.696;23.354;2023-03-01T05:39:18;6.20;;;4.40;;
7833;SDS011;3962;42.696;23.354;2023-03-01T05:41:47;13.47;;;5.73;;
7833;SDS011;3962;42.696;23.354;2023-03-01T05:44:14;9.70;;;5.20;;
7833;SDS011;3962;42.696;23.354;2023-03-01T05:46:41;6.73;;;5.00;;
7833;SDS011;3962;42.696;23.354;2023-03-01T05:49:09;8.90;;;5.77;;
7833;SDS011;3962;42.696;23.354;2023-03-01T05:51:36;9.17;;;5.10;;
7833;SDS011;3962;42.696;23.354;2023-03-01T05:54:03;8.43;;;4.90;;
7833;SDS011;3962;42.696;23.354;2023-03-01T05:56:32;5.73;;;4.17;;
7833;SDS011;3962;42.696;23.354;2023-03-01T05:58:59;7.47;;;4.60;;
7833;SDS011;3962;42.696;23.354;2023-03-01T06:01:26;6.47;;;4.00;;
7833;SDS011;3962;42.696;23.354;2023-03-01T06:03:53;5.23;;;4.07;;
7833;SDS011;3962;42.696;23.354;2023-03-01T06:06:21;6.17;;;4.20;;
7833;SDS011;3962;42.696;23.354;2023-03-01T06:08:49;7.10;;;5.17;;
7833;SDS011;3962;42.696;23.354;2023-03-01T06:11:16;8.50;;;4.87;;
7833;SDS011;3962;42.696;23.354;2023-03-01T06:13:42;6.67;;;5.03;;
7833;SDS011;3962;42.696;23.354;2023-03-01T06:16:10;4.73;;;4.23;;
7833;SDS011;3962;42.696;23.354;2023-03-01T06:18:38;9.10;;;4.73;;
7833;SDS011;3962;42.696;23.354;2023-03-01T06:21:06;7.17;;;4.70;;
7833;SDS011;3962;42.696;23.354;2023-03-01T06:23:35;9.93;;;5.40;;
7833;SDS011;3962;42.696;23.354;2023-03-01T06:26:05;8.93;;;5.37;;
7833;SDS011;3962;42.696;23.354;2023-03-01T06:28:33;7.93;;;5.00;;
7833;SDS011;3962;42.696;23.354;2023-03-01T06:31:00;13.67;;;6.07;;
7833;SDS011;3962;42.696;23.354;2023-03-01T06:33:27;9.47;;;4.67;;
7833;SDS011;3962;42.696;23.354;2023-03-01T06:35:54;10.30;;;3.93;;
7833;SDS011;3962;42.696;23.354;2023-03-01T06:38:21;6.13;;;4.07;;
7833;SDS011;3962;42.696;23.354;2023-03-01T06:40:52;14.60;;;4.67;;
7833;SDS011;3962;42.696;23.354;2023-03-01T06:43:21;5.50;;;4.57;;
7833;SDS011;3962;42.696;23.354;2023-03-01T06:45:48;5.80;;;4.40;;
7833;SDS011;3962;42.696;23.354;2023-03-01T06:48:15;12.43;;;6.27;;
7833;SDS011;3962;42.696;23.354;2023-03-01T06:50:42;7.13;;;4.93;;
7833;SDS011;3962;42.696;23.354;2023-03-01T06:53:09;12.53;;;5.73;;
7833;SDS011;3962;42.696;23.354;2023-03-01T06:55:36;13.20;;;5.23;;
7833;SDS011;3962;42.696;23.354;2023-03-01T06:58:04;5.97;;;4.50;;
7833;SDS011;3962;42.696;23.354;2023-03-01T07:00:31;6.03;;;4.27;;
7833;SDS011;3962;42.696;23.354;2023-03-01T07:02:59;9.97;;;4.90;;
7833;SDS011;3962;42.696;23.354;2023-03-01T07:05:27;9.53;;;4.43;;
7833;SDS011;3962;42.696;23.354;2023-03-01T07:07:54;5.53;;;4.40;;
7833;SDS011;3962;42.696;23.354;2023-03-01T07:10:21;4.23;;;3.47;;
7833;SDS011;3962;42.696;23.354;2023-03-01T07:12:48;5.13;;;4.13;;
7833;SDS011;3962;42.696;23.354;2023-03-01T07:15:17;6.03;;;3.87;;
7833;SDS011;3962;42.696;23.354;2023-03-01T07:17:44;6.20;;;3.67;;
7833;SDS011;3962;42.696;23.354;2023-03-01T07:20:12;6.40;;;4.50;;
7833;SDS011;3962;42.696;23.354;2023-03-01T07:22:40;7.07;;;3.87;;
7833;SDS011;3962;42.696;23.354;2023-03-01T07:25:08;12.37;;;3.87;;
7833;SDS011;3962;42.696;23.354;2023-03-01T07:27:36;13.67;;;6.47;;
7833;SDS011;3962;42.696;23.354;2023-03-01T07:30:04;11.90;;;4.83;;
7833;SDS011;3962;42.696;23.354;2023-03-01T07:32:33;9.17;;;5.00;;
7833;SDS011;3962;42.696;23.354;2023-03-01T07:34:59;6.20;;;4.70;;
7833;SDS011;3962;42.696;23.354;2023-03-01T07:37:26;9.67;;;4.97;;
7833;SDS011;3962;42.696;23.354;2023-03-01T07:39:53;18.40;;;6.20;;
7833;SDS011;3962;42.696;23.354;2023-03-01T07:42:20;10.23;;;5.30;;
7833;SDS011;3962;42.696;23.354;2023-03-01T07:44:47;14.47;;;6.23;;
7833;SDS011;3962;42.696;23.354;2023-03-01T07:47:15;16.73;;;6.00;;
7833;SDS011;3962;42.696;23.354;2023-03-01T07:49:45;9.27;;;5.00;;
7833;SDS011;3962;42.696;23.354;2023-03-01T07:52:14;10.27;;;4.57;;
7833;SDS011;3962;42.696;23.354;2023-03-01T07:54:42;16.63;;;5.63;;
7833;SDS011;3962;42.696;23.354;2023-03-01T07:57:10;11.47;;;4.77;;
7833;SDS011;3962;42.696;23.354;2023-03-01T07:59:37;7.50;;;3.97;;
7833;SDS011;3962;42.696;23.354;2023-03-01T08:02:04;16.97;;;4.90;;
7833;SDS011;3962;42.696;23.354;2023-03-01T08:04:32;6.87;;;3.43;;
7833;SDS011;3962;42.696;23.354;2023-03-01T08:07:00;6.77;;;3.40;;
7833;SDS011;3962;42.696;23.354;2023-03-01T08:09:27;10.50;;;5.10;;
7833;SDS011;3962;42.696;23.354;2023-03-01T08:11:55;11.17;;;4.57;;
7833;SDS011;3962;42.696;23.354;2023-03-01T08:14:24;19.33;;;3.83;;
7833;SDS011;3962;42.696;23.354;2023-03-01T08:16:51;7.53;;;3.40;;
7833;SDS011;3962;42.696;23.354;2023-03-01T08:19:18;10.77;;;3.60;;
7833;SDS011;3962;42.696;23.354;2023-03-01T08:21:45;8.17;;;3.57;;
7833;SDS011;3962;42.696;23.354;2023-03-01T08:24:13;4.47;;;3.10;;
7833;SDS011;3962;42.696;23.354;2023-03-01T08:26:40;16.13;;;4.50;;
7833;SDS011;3962;42.696;23.354;2023-03-01T08:29:07;8.93;;;4.03;;
7833;SDS011;3962;42.696;23.354;2023-03-01T08:31:35;8.80;;;4.00;;
7833;SDS011;3962;42.696;23.354;2023-03-01T08:34:04;12.13;;;4.07;;
7833;SDS011;3962;42.696;23.354;2023-03-01T08:36:36;5.73;;;3.10;;
7833;SDS011;3962;42.696;23.354;2023-03-01T08:39:05;5.57;;;3.93;;
7833;SDS011;3962;42.696;23.354;2023-03-01T08:41:34;5.53;;;3.27;;
7833;SDS011;3962;42.696;23.354;2023-03-01T08:44:01;6.40;;;3.83;;
7833;SDS011;3962;42.696;23.354;2023-03-01T08:46:32;4.37;;;3.17;;
7833;SDS011;3962;42.696;23.354;2023-03-01T08:49:03;6.43;;;3.80;;
7833;SDS011;3962;42.696;23.354;2023-03-01T08:51:30;4.70;;;3.70;;
7833;SDS011;3962;42.696;23.354;2023-03-01T08:54:01;5.33;;;3.50;;
7833;SDS011;3962;42.696;23.354;2023-03-01T08:56:28;5.80;;;3.63;;
7833;SDS011;3962;42.696;23.354;2023-03-01T08:58:56;7.27;;;3.77;;
7833;SDS011;3962;42.696;23.354;2023-03-01T09:01:23;8.53;;;3.97;;
7833;SDS011;3962;42.696;23.354;2023-03-01T09:03:50;12.63;;;5.13;;
7833;SDS011;3962;42.696;23.354;2023-03-01T09:06:17;6.03;;;3.53;;
7833;SDS011;3962;42.696;23.354;2023-03-01T09:08:45;8.40;;;3.20;;
7833;SDS011;3962;42.696;23.354;2023-03-01T09:11:14;3.97;;;3.20;;
7833;SDS011;3962;42.696;23.354;2023-03-01T09:13:43;7.50;;;3.90;;
7833;SDS011;3962;42.696;23.354;2023-03-01T09:16:12;3.80;;;3.10;;
7833;SDS011;3962;42.696;23.354;2023-03-01T09:18:40;4.90;;;3.40;;
7833;SDS011;3962;42.696;23.354;2023-03-01T09:21:07;8.60;;;4.70;;
7833;SDS011;3962;42.696;23.354;2023-03-01T09:23:36;3.30;;;3.00;;
7833;SDS011;3962;42.696;23.354;2023-03-01T09:26:04;5.57;;;3.23;;
7833;SDS011;3962;42.696;23.354;2023-03-01T09:28:31;4.50;;;3.17;;
7833;SDS011;3962;42.696;23.354;2023-03-01T09:30:59;3.10;;;2.73;;
7833;SDS011;3962;42.696;23.354;2023-03-01T09:33:27;3.50;;;3.20;;
7833;SDS011;3962;42.696;23.354;2023-03-01T09:35:58;5.93;;;4.63;;
7833;SDS011;3962;42.696;23.354;2023-03-01T09:38:25;5.03;;;3.03;;
7833;SDS011;3962;42.696;23.354;2023-03-01T09:40:53;6.03;;;2.90;;
7833;SDS011;3962;42.696;23.354;2023-03-01T09:43:21;8.83;;;3.90;;
7833;SDS011;3962;42.696;23.354;2023-03-01T09:45:52;6.00;;;3.30;;
7833;SDS011;3962;42.696;23.354;2023-03-01T09:48:23;8.20;;;3.60;;
7833;SDS011;3962;42.696;23.354;2023-03-01T09:50:54;4.27;;;3.47;;
7833;SDS011;3962;42.696;23.354;2023-03-01T09:53:21;5.87;;;3.73;;
7833;SDS011;3962;42.696;23.354;2023-03-01T09:55:54;3.40;;;2.73;;
7833;SDS011;3962;42.696;23.354;2023-03-01T09:58:29;3.43;;;2.67;;
7833;SDS011;3962;42.696;23.354;2023-03-01T10:01:05;3.47;;;3.03;;
7833;SDS011;3962;42.696;23.354;2023-03-01T10:03:54;6.07;;;3.20;;
7833;SDS011;3962;42.696;23.354;2023-03-01T10:06:32;2.87;;;2.07;;
7833;SDS011;3962;42.696;23.354;2023-03-01T10:09:00;5.70;;;3.27;;
7833;SDS011;3962;42.696;23.354;2023-03-01T10:11:34;5.23;;;3.97;;
7833;SDS011;3962;42.696;23.354;2023-03-01T10:14:05;5.20;;;3.20;;
7833;SDS011;3962;42.696;23.354;2023-03-01T10:16:43;5.00;;;2.63;;
7833;SDS011;3962;42.696;23.354;2023-03-01T10:19:16;3.40;;;2.63;;
7833;SDS011;3962;42.696;23.354;2023-03-01T10:21:50;4.23;;;3.13;;
7833;SDS011;3962;42.696;23.354;2023-03-01T10:24:18;3.47;;;3.00;;
7833;SDS011;3962;42.696;23.354;2023-03-01T10:26:54;3.50;;;2.43;;
7833;SDS011;3962;42.696;23.354;2023-03-01T10:29:23;4.63;;;2.20;;
7833;SDS011;3962;42.696;23.354;2023-03-01T10:31:54;6.17;;;3.60;;
7833;SDS011;3962;42.696;23.354;2023-03-01T10:34:29;3.10;;;2.37;;
7833;SDS011;3962;42.696;23.354;2023-03-01T10:37:09;3.37;;;3.00;;
7833;SDS011;3962;42.696;23.354;2023-03-01T10:39:54;4.60;;;2.77;;
7833;SDS011;3962;42.696;23.354;2023-03-01T10:42:25;4.13;;;3.00;;
7833;SDS011;3962;42.696;23.354;2023-03-01T10:44:55;3.83;;;2.77;;
7833;SDS011;3962;42.696;23.354;2023-03-01T10:47:22;2.20;;;2.00;;
7833;SDS011;3962;42.696;23.354;2023-03-01T10:52:55;2.83;;;1.90;;
7833;SDS011;3962;42.696;23.354;2023-03-01T10:55:26;3.57;;;2.10;;
7833;SDS011;3962;42.696;23.354;2023-03-01T10:58:08;4.23;;;2.80;;
7833;SDS011;3962;42.696;23.354;2023-03-01T11:00:45;2.50;;;1.50;;
7833;SDS011;3962;42.696;23.354;2023-03-01T11:03:14;2.73;;;2.20;;
7833;SDS011;3962;42.696;23.354;2023-03-01T11:08:49;4.20;;;2.00;;
7833;SDS011;3962;42.696;23.354;2023-03-01T11:13:58;3.73;;;2.10;;
7833;SDS011;3962;42.696;23.354;2023-03-01T11:16:32;4.10;;;2.67;;
7833;SDS011;3962;42.696;23.354;2023-03-01T11:19:13;1.97;;;1.80;;
7833;SDS011;3962;42.696;23.354;2023-03-01T11:21:43;1.90;;;1.80;;
7833;SDS011;3962;42.696;23.354;2023-03-01T11:24:23;6.57;;;2.97;;
7833;SDS011;3962;42.696;23.354;2023-03-01T11:26:55;6.47;;;2.90;;
7833;SDS011;3962;42.696;23.354;2023-03-01T11:29:26;3.57;;;2.63;;
7833;SDS011;3962;42.696;23.354;2023-03-01T11:31:58;2.90;;;2.33;;
7833;SDS011;3962;42.696;23.354;2023-03-01T11:34:37;2.53;;;2.17;;
7833;SDS011;3962;42.696;23.354;2023-03-01T11:37:11;5.40;;;3.33;;
7833;SDS011;3962;42.696;23.354;2023-03-01T11:39:53;3.23;;;2.37;;
7833;SDS011;3962;42.696;23.354;2023-03-01T11:42:28;5.20;;;3.50;;
7833;SDS011;3962;42.696;23.354;2023-03-01T11:45:06;5.47;;;3.27;;
7833;SDS011;3962;42.696;23.354;2023-03-01T11:47:54;4.63;;;2.93;;
7833;SDS011;3962;42.696;23.354;2023-03-01T11:50:30;4.83;;;3.17;;
7833;SDS011;3962;42.696;23.354;2023-03-01T11:56:19;3.53;;;2.70;;
7833;SDS011;3962;42.696;23.354;2023-03-01T11:59:10;5.50;;;3.37;;
7833;SDS011;3962;42.696;23.354;2023-03-01T12:01:54;3.30;;;1.90;;
7833;SDS011;3962;42.696;23.354;2023-03-01T12:04:53;6.63;;;2.50;;
7833;SDS011;3962;42.696;23.354;2023-03-01T12:07:44;3.20;;;2.90;;
7833;SDS011;3962;42.696;23.354;2023-03-01T12:10:26;5.70;;;3.23;;
7833;SDS011;3962;42.696;23.354;2023-03-01T12:13:02;6.40;;;2.80;;
7833;SDS011;3962;42.696;23.354;2023-03-01T12:21:52;8.57;;;3.70;;
7833;SDS011;3962;42.696;23.354;2023-03-01T12:24:33;5.87;;;3.10;;
7833;SDS011;3962;42.696;23.354;2023-03-01T12:27:17;12.03;;;4.53;;
7833;SDS011;3962;42.696;23.354;2023-03-01T12:29:57;3.07;;;2.10;;
7833;SDS011;3962;42.696;23.354;2023-03-01T12:32:40;6.77;;;2.77;;
7833;SDS011;3962;42.696;23.354;2023-03-01T12:38:14;9.03;;;3.27;;
7833;SDS011;3962;42.696;23.354;2023-03-01T12:41:01;6.20;;;3.00;;
7833;SDS011;3962;42.696;23.354;2023-03-01T12:43:43;8.93;;;5.00;;
7833;SDS011;3962;42.696;23.354;2023-03-01T12:46:28;5.60;;;3.67;;
7833;SDS011;3962;42.696;23.354;2023-03-01T12:49:08;4.90;;;3.60;;
7833;SDS011;3962;42.696;23.354;2023-03-01T12:51:38;9.93;;;3.60;;
7833;SDS011;3962;42.696;23.354;2023-03-01T12:54:12;8.57;;;4.73;;
7833;SDS011;3962;42.696;23.354;2023-03-01T12:56:42;11.80;;;4.60;;
7833;SDS011;3962;42.696;23.354;2023-03-01T12:59:18;8.47;;;3.43;;
7833;SDS011;3962;42.696;23.354;2023-03-01T13:01:53;3.87;;;3.00;;
7833;SDS011;3962;42.696;23.354;2023-03-01T13:04:35;4.47;;;3.40;;
7833;SDS011;3962;42.696;23.354;2023-03-01T13:07:14;7.33;;;3.20;;
7833;SDS011;3962;42.696;23.354;2023-03-01T13:09:49;3.47;;;2.00;;
7833;SDS011;3962;42.696;23.354;2023-03-01T13:12:45;8.40;;;2.40;;
7833;SDS011;3962;42.696;23.354;2023-03-01T13:15:35;4.80;;;3.20;;
7833;SDS011;3962;42.696;23.354;2023-03-01T13:18:27;8.90;;;4.03;;
7833;SDS011;3962;42.696;23.354;2023-03-01T13:20:56;5.50;;;3.57;;
7833;SDS011;3962;42.696;23.354;2023-03-01T13:23:25;6.07;;;4.10;;
7833;SDS011;3962;42.696;23.354;2023-03-01T13:28:53;5.73;;;3.70;;
7833;SDS011;3962;42.696;23.354;2023-03-01T13:34:47;9.93;;;3.90;;
7833;SDS011;3962;42.696;23.354;2023-03-01T13:37:23;4.07;;;2.93;;
7833;SDS011;3962;42.696;23.354;2023-03-01T13:39:54;6.73;;;3.70;;
7833;SDS011;3962;42.696;23.354;2023-03-01T13:45:24;8.23;;;3.80;;
7833;SDS011;3962;42.696;23.354;2023-03-01T13:48:02;7.67;;;3.63;;
7833;SDS011;3962;42.696;23.354;2023-03-01T13:50:38;8.40;;;4.67;;
7833;SDS011;3962;42.696;23.354;2023-03-01T13:53:14;8.50;;;4.13;;
7833;SDS011;3962;42.696;23.354;2023-03-01T13:55:45;8.70;;;3.63;;
7833;SDS011;3962;42.696;23.354;2023-03-01T13:58:16;8.93;;;5.03;;
7833;SDS011;3962;42.696;23.354;2023-03-01T14:00:47;5.30;;;3.80;;
7833;SDS011;3962;42.696;23.354;2023-03-01T14:03:21;15.80;;;4.53;;
7833;SDS011;3962;42.696;23.354;2023-03-01T14:06:02;7.87;;;4.40;;
7833;SDS011;3962;42.696;23.354;2023-03-01T14:08:44;8.17;;;4.20;;
7833;SDS011;3962;42.696;23.354;2023-03-01T14:11:26;7.90;;;4.37;;
7833;SDS011;3962;42.696;23.354;2023-03-01T14:14:36;7.80;;;4.37;;
7833;SDS011;3962;42.696;23.354;2023-03-01T14:20:14;10.60;;;4.43;;
7833;SDS011;3962;42.696;23.354;2023-03-01T14:22:46;6.93;;;3.90;;
7833;SDS011;3962;42.696;23.354;2023-03-01T14:25:20;5.00;;;3.87;;
7833;SDS011;3962;42.696;23.354;2023-03-01T14:27:51;8.93;;;4.83;;
7833;SDS011;3962;42.696;23.354;2023-03-01T14:30:23;12.83;;;5.43;;
7833;SDS011;3962;42.696;23.354;2023-03-01T14:32:52;9.57;;;4.93;;
7833;SDS011;3962;42.696;23.354;2023-03-01T14:35:23;7.40;;;4.30;;
7833;SDS011;3962;42.696;23.354;2023-03-01T14:37:53;10.60;;;4.50;;
7833;SDS011;3962;42.696;23.354;2023-03-01T14:40:22;4.60;;;3.83;;
7833;SDS011;3962;42.696;23.354;2023-03-01T14:42:50;4.77;;;3.93;;
7833;SDS011;3962;42.696;23.354;2023-03-01T14:45:19;6.77;;;4.20;;
7833;SDS011;3962;42.696;23.354;2023-03-01T14:47:46;8.53;;;4.70;;
7833;SDS011;3962;42.696;23.354;2023-03-01T14:50:16;7.80;;;4.80;;
7833;SDS011;3962;42.696;23.354;2023-03-01T14:52:50;6.17;;;4.10;;
7833;SDS011;3962;42.696;23.354;2023-03-01T14:55:24;12.70;;;5.60;;
7833;SDS011;3962;42.696;23.354;2023-03-01T14:57:53;15.57;;;5.33;;
7833;SDS011;3962;42.696;23.354;2023-03-01T15:00:22;13.73;;;6.40;;
7833;SDS011;3962;42.696;23.354;2023-03-01T15:02:51;13.33;;;5.70;;
7833;SDS011;3962;42.696;23.354;2023-03-01T15:05:22;9.90;;;5.50;;
7833;SDS011;3962;42.696;23.354;2023-03-01T15:07:53;8.20;;;5.07;;
7833;SDS011;3962;42.696;23.354;2023-03-01T15:10:23;15.07;;;5.70;;
7833;SDS011;3962;42.696;23.354;2023-03-01T15:12:51;13.73;;;4.87;;
7833;SDS011;3962;42.696;23.354;2023-03-01T15:15:20;7.10;;;4.70;;
7833;SDS011;3962;42.696;23.354;2023-03-01T15:17:58;11.27;;;5.47;;
7833;SDS011;3962;42.696;23.354;2023-03-01T15:20:27;9.93;;;5.73;;
7833;SDS011;3962;42.696;23.354;2023-03-01T15:22:57;11.40;;;5.63;;
7833;SDS011;3962;42.696;23.354;2023-03-01T15:25:27;11.13;;;6.17;;
7833;SDS011;3962;42.696;23.354;2023-03-01T15:27:56;12.83;;;6.37;;
7833;SDS011;3962;42.696;23.354;2023-03-01T15:30:26;7.10;;;3.83;;
7833;SDS011;3962;42.696;23.354;2023-03-01T15:35:54;14.23;;;5.57;;
7833;SDS011;3962;42.696;23.354;2023-03-01T15:38:26;8.40;;;4.63;;
7833;SDS011;3962;42.696;23.354;2023-03-01T15:40:56;7.73;;;4.90;;
7833;SDS011;3962;42.696;23.354;2023-03-01T15:43:44;18.27;;;7.93;;
7833;SDS011;3962;42.696;23.354;2023-03-01T15:46:14;9.73;;;6.37;;
7833;SDS011;3962;42.696;23.354;2023-03-01T15:48:44;14.97;;;5.70;;
7833;SDS011;3962;42.696;23.354;2023-03-01T15:51:14;8.77;;;5.63;;
7833;SDS011;3962;42.696;23.354;2023-03-01T15:53:42;10.37;;;5.17;;
7833;SDS011;3962;42.696;23.354;2023-03-01T15:56:15;16.50;;;6.53;;
7833;SDS011;3962;42.696;23.354;2023-03-01T15:58:42;10.60;;;6.00;;